createdAt,value
2018-09-03T00:02:03.956Z,15.50
2018-09-03T00:04:31.487Z,15.50
2018-09-03T00:06:59.068Z,15.50
2018-09-03T00:09:30.062Z,15.50
2018-09-03T00:12:01.691Z,15.50
2018-09-03T00:14:29.240Z,15.60
2018-09-03T00:16:56.790Z,15.60
2018-09-03T00:19:24.353Z,15.60
2018-09-03T00:21:51.888Z,15.60
2018-09-03T00:24:19.410Z,15.70
2018-09-03T00:26:46.968Z,15.70
2018-09-03T00:29:14.494Z,15.70
2018-09-03T00:31:47.797Z,15.80
2018-09-03T00:34:21.118Z,15.80
2018-09-03T00:36:54.573Z,15.80
2018-09-03T00:39:27.869Z,15.80
2018-09-03T00:42:01.162Z,15.80
2018-09-03T00:44:34.460Z,15.80
2018-09-03T00:47:05.098Z,15.80
2018-09-03T00:49:32.669Z,15.80
2018-09-03T00:52:00.278Z,15.80
2018-09-03T00:54:27.919Z,15.90
2018-09-03T00:56:55.509Z,15.90
2018-09-03T00:59:23.053Z,15.90
2018-09-03T01:01:50.621Z,15.90
2018-09-03T01:04:18.156Z,16.00
2018-09-03T01:06:45.730Z,16.00
2018-09-03T01:09:13.246Z,16.10
2018-09-03T01:11:40.790Z,16.20
2018-09-03T01:14:08.308Z,16.20
2018-09-03T01:16:35.840Z,16.30
2018-09-03T01:19:03.384Z,16.40
2018-09-03T01:21:30.924Z,16.40
2018-09-03T01:23:58.447Z,16.50
2018-09-03T01:26:25.997Z,16.50
2018-09-03T01:28:53.531Z,16.50
2018-09-03T01:31:21.414Z,16.60
2018-09-03T01:33:50.756Z,16.60
2018-09-03T01:36:18.724Z,16.60
2018-09-03T01:38:46.352Z,16.60
2018-09-03T01:41:13.973Z,16.60
2018-09-03T01:43:41.517Z,16.60
2018-09-03T01:46:09.052Z,16.60
2018-09-03T01:48:36.565Z,16.60
2018-09-03T01:51:04.315Z,16.60
2018-09-03T01:53:31.842Z,16.70
2018-09-03T01:55:59.350Z,16.70
2018-09-03T01:58:26.890Z,16.70
2018-09-03T02:00:54.428Z,16.70
2018-09-03T02:03:21.952Z,16.70
2018-09-03T02:05:49.519Z,16.70
2018-09-03T02:08:17.077Z,16.70
2018-09-03T02:10:44.627Z,16.70
2018-09-03T02:13:12.183Z,16.70
2018-09-03T02:15:39.786Z,16.70
2018-09-03T02:18:07.322Z,16.70
2018-09-03T02:20:34.873Z,16.70
2018-09-03T02:23:02.662Z,16.70
2018-09-03T02:25:30.224Z,16.70
2018-09-03T02:27:57.779Z,16.70
2018-09-03T02:30:25.665Z,16.70
2018-09-03T02:32:53.255Z,16.70
2018-09-03T02:35:20.806Z,16.70
2018-09-03T02:37:48.350Z,16.70
2018-09-03T02:40:15.891Z,16.70
2018-09-03T02:42:43.441Z,16.70
2018-09-03T02:45:11.021Z,16.70
2018-09-03T02:47:38.792Z,16.70
2018-09-03T02:50:06.756Z,16.80
2018-09-03T02:52:34.714Z,16.80
2018-09-03T02:55:02.267Z,16.80
2018-09-03T02:57:29.817Z,16.80
2018-09-03T02:59:57.358Z,16.80
2018-09-03T03:02:24.907Z,16.80
2018-09-03T03:04:52.450Z,16.80
2018-09-03T03:07:20.009Z,16.80
2018-09-03T03:09:47.539Z,16.80
2018-09-03T03:12:20.993Z,16.90
2018-09-03T03:14:48.726Z,16.90
2018-09-03T03:17:16.265Z,16.90
2018-09-03T03:19:43.807Z,16.90
2018-09-03T03:22:11.353Z,16.90
2018-09-03T03:24:39.534Z,16.90
2018-09-03T03:27:07.148Z,16.90
2018-09-03T03:29:34.682Z,16.90
2018-09-03T03:32:02.279Z,16.90
2018-09-03T03:34:29.844Z,16.90
2018-09-03T03:36:57.414Z,16.90
2018-09-03T03:39:24.976Z,16.90
2018-09-03T03:41:52.527Z,16.90
2018-09-03T03:44:20.071Z,16.90
2018-09-03T03:46:47.620Z,16.90
2018-09-03T03:49:15.272Z,16.90
2018-09-03T03:51:42.812Z,17.00
2018-09-03T03:54:10.364Z,16.90
2018-09-03T03:56:37.911Z,16.90
2018-09-03T03:59:05.487Z,16.90
2018-09-03T04:01:33.041Z,16.90
2018-09-03T04:04:00.585Z,17.00
2018-09-03T04:06:28.203Z,16.90
2018-09-03T04:08:55.746Z,17.00
2018-09-03T04:11:23.290Z,16.90
2018-09-03T04:13:50.811Z,17.00
2018-09-03T04:16:18.348Z,17.00
2018-09-03T04:18:45.909Z,17.00
2018-09-03T04:21:13.469Z,17.00
2018-09-03T04:23:41.023Z,17.00
2018-09-03T04:26:08.572Z,17.00
2018-09-03T04:28:36.135Z,17.00
2018-09-03T04:31:03.696Z,17.00
2018-09-03T04:33:31.242Z,17.00
2018-09-03T04:35:59.010Z,17.00
2018-09-03T04:38:26.541Z,17.00
2018-09-03T04:40:54.092Z,17.00
2018-09-03T04:43:21.651Z,17.00
2018-09-03T04:45:49.217Z,17.00
2018-09-03T04:48:16.753Z,17.00
2018-09-03T04:50:44.291Z,17.00
2018-09-03T04:53:11.827Z,17.00
2018-09-03T04:55:39.359Z,17.10
2018-09-03T04:58:06.896Z,17.10
2018-09-03T05:00:34.439Z,17.10
2018-09-03T05:03:01.974Z,17.10
2018-09-03T05:05:29.525Z,17.10
2018-09-03T05:07:57.066Z,17.10
2018-09-03T05:10:24.587Z,17.00
2018-09-03T05:12:52.082Z,17.00
2018-09-03T05:15:19.611Z,17.00
2018-09-03T05:17:47.181Z,17.10
2018-09-03T05:20:14.707Z,17.10
2018-09-03T05:22:42.252Z,17.10
2018-09-03T05:25:09.796Z,17.20
2018-09-03T05:27:37.328Z,17.20
2018-09-03T05:30:06.250Z,17.20
2018-09-03T05:32:33.801Z,17.20
2018-09-03T05:35:01.328Z,17.30
2018-09-03T05:37:28.846Z,17.30
2018-09-03T05:40:04.211Z,17.30
2018-09-03T05:42:31.748Z,17.30
2018-09-03T05:44:59.284Z,17.30
2018-09-03T05:47:26.795Z,17.40
2018-09-03T05:49:54.323Z,17.40
2018-09-03T05:52:21.872Z,17.40
2018-09-03T05:54:49.400Z,17.50
2018-09-03T05:57:16.922Z,17.50
2018-09-03T05:59:44.430Z,17.50
2018-09-03T06:02:11.938Z,17.50
2018-09-03T06:04:39.563Z,17.60
2018-09-03T06:07:07.070Z,17.60
2018-09-03T06:09:34.602Z,17.70
2018-09-03T06:12:02.136Z,17.80
2018-09-03T06:14:29.665Z,17.90
2018-09-03T06:16:57.182Z,17.90
2018-09-03T06:19:24.720Z,18.00
2018-09-03T06:21:52.230Z,18.00
2018-09-03T06:24:19.771Z,18.10
2018-09-03T06:26:47.295Z,18.20
2018-09-03T06:29:14.834Z,18.20
2018-09-03T06:31:49.164Z,18.30
2018-09-03T06:34:16.678Z,18.30
2018-09-03T06:36:44.209Z,18.40
2018-09-03T06:39:11.855Z,18.40
2018-09-03T06:41:39.294Z,18.40
2018-09-03T06:44:06.825Z,18.50
2018-09-03T06:46:34.335Z,18.60
2018-09-03T06:49:01.863Z,18.60
2018-09-03T06:51:29.389Z,18.70
2018-09-03T06:53:56.945Z,18.80
2018-09-03T06:56:24.479Z,18.90
2018-09-03T06:58:52.036Z,18.90
2018-09-03T07:01:20.557Z,19.00
2018-09-03T07:03:48.071Z,19.10
2018-09-03T07:06:15.619Z,19.20
2018-09-03T07:08:43.164Z,19.40
2018-09-03T07:11:11.363Z,19.50
2018-09-03T07:13:38.914Z,19.60
2018-09-03T07:16:06.446Z,19.70
2018-09-03T07:18:33.999Z,19.80
2018-09-03T07:21:01.515Z,20.00
2018-09-03T07:23:29.069Z,20.10
2018-09-03T07:25:56.626Z,20.20
2018-09-03T07:28:24.165Z,20.30
2018-09-03T07:30:51.719Z,20.50
2018-09-03T07:33:19.257Z,20.60
2018-09-03T07:35:46.815Z,20.60
2018-09-03T07:38:14.344Z,20.60
2018-09-03T07:40:41.916Z,20.80
2018-09-03T07:43:09.497Z,20.90
2018-09-03T07:45:37.035Z,21.00
2018-09-03T07:48:04.628Z,21.10
2018-09-03T07:50:32.174Z,21.40
2018-09-03T07:52:59.721Z,21.70
2018-09-03T07:55:27.269Z,21.80
2018-09-03T07:57:54.821Z,21.90
2018-09-03T08:00:22.359Z,22.00
2018-09-03T08:02:49.904Z,22.10
2018-09-03T08:05:17.470Z,22.20
2018-09-03T08:07:45.017Z,22.30
2018-09-03T08:10:12.558Z,22.30
2018-09-03T08:12:40.091Z,22.40
2018-09-03T08:15:08.044Z,22.50
2018-09-03T08:17:35.603Z,22.60
2018-09-03T08:20:03.263Z,22.80
2018-09-03T08:22:30.849Z,23.30
2018-09-03T08:24:58.457Z,23.60
2018-09-03T08:27:26.028Z,23.80
2018-09-03T08:29:53.580Z,23.90
2018-09-03T08:32:21.117Z,24.20
2018-09-03T08:34:48.657Z,24.80
2018-09-03T08:37:16.205Z,25.30
2018-09-03T08:39:43.740Z,25.70
2018-09-03T08:42:11.320Z,26.00
2018-09-03T08:44:38.944Z,26.40
2018-09-03T08:47:06.706Z,26.70
2018-09-03T08:49:34.227Z,26.90
2018-09-03T08:52:01.927Z,27.10
2018-09-03T08:54:29.511Z,27.00
2018-09-03T08:56:57.039Z,27.20
2018-09-03T08:59:24.583Z,27.40
2018-09-03T09:01:52.112Z,27.50
2018-09-03T09:04:19.637Z,27.60
2018-09-03T09:06:47.175Z,27.60
2018-09-03T09:09:14.749Z,27.50
2018-09-03T09:11:42.338Z,27.70
2018-09-03T09:14:09.825Z,28.00
2018-09-03T09:16:37.384Z,28.50
2018-09-03T09:19:11.718Z,28.90
2018-09-03T09:21:39.294Z,29.20
2018-09-03T09:24:06.832Z,29.60
2018-09-03T09:26:34.391Z,29.90
2018-09-03T09:29:01.971Z,30.00
2018-09-03T09:31:29.540Z,29.80
2018-09-03T09:33:57.089Z,29.70
2018-09-03T09:36:24.654Z,29.40
2018-09-03T09:38:52.213Z,29.40
2018-09-03T09:41:19.806Z,29.60
2018-09-03T09:43:47.321Z,29.80
2018-09-03T09:46:14.894Z,30.20
2018-09-03T09:48:42.455Z,30.50
2018-09-03T09:51:10.013Z,30.80
2018-09-03T09:53:37.558Z,30.90
2018-09-03T09:56:05.121Z,31.10
2018-09-03T09:58:32.912Z,31.10
2018-09-03T10:01:06.255Z,30.80
2018-09-03T10:03:33.954Z,30.60
2018-09-03T10:06:01.638Z,30.30
2018-09-03T10:08:29.176Z,30.00
2018-09-03T10:10:56.715Z,30.00
2018-09-03T10:13:24.252Z,30.00
2018-09-03T10:15:51.788Z,29.90
2018-09-03T10:18:19.306Z,29.70
2018-09-03T10:20:46.833Z,29.40
2018-09-03T10:23:14.391Z,29.20
2018-09-03T10:25:41.910Z,29.30
2018-09-03T10:28:09.429Z,29.30
2018-09-03T10:30:36.958Z,29.20
2018-09-03T10:33:04.494Z,29.40
2018-09-03T10:35:32.019Z,29.60
2018-09-03T10:37:59.561Z,29.70
2018-09-03T10:40:27.131Z,29.60
2018-09-03T10:42:55.355Z,29.50
2018-09-03T10:45:22.912Z,29.40
2018-09-03T10:47:50.431Z,29.60
2018-09-03T10:50:17.955Z,29.80
2018-09-03T10:52:45.493Z,29.90
2018-09-03T10:55:13.042Z,29.90
2018-09-03T10:57:40.589Z,29.80
2018-09-03T11:00:08.136Z,29.70
2018-09-03T11:02:35.677Z,29.60
2018-09-03T11:05:03.215Z,29.50
2018-09-03T11:07:30.758Z,29.40
2018-09-03T11:09:58.304Z,29.30
2018-09-03T11:12:25.881Z,29.20
2018-09-03T11:14:53.419Z,29.10
2018-09-03T11:17:20.990Z,29.20
2018-09-03T11:19:53.720Z,29.20
2018-09-03T11:22:21.576Z,29.10
2018-09-03T11:24:49.145Z,29.10
2018-09-03T11:27:16.694Z,29.00
2018-09-03T11:29:44.231Z,28.80
2018-09-03T11:32:11.782Z,28.80
2018-09-03T11:34:39.435Z,28.90
2018-09-03T11:37:07.466Z,29.10
2018-09-03T11:39:35.017Z,29.20
2018-09-03T11:42:02.584Z,29.10
2018-09-03T11:44:30.130Z,28.90
2018-09-03T11:46:57.693Z,28.70
2018-09-03T11:49:25.261Z,28.50
2018-09-03T11:51:52.821Z,28.30
2018-09-03T11:54:20.462Z,28.10
2018-09-03T11:56:47.997Z,28.10
2018-09-03T11:59:15.535Z,28.10
2018-09-03T12:01:43.089Z,28.10
2018-09-03T12:04:10.649Z,28.10
2018-09-03T12:06:38.263Z,28.10
2018-09-03T12:09:13.855Z,28.10
2018-09-03T12:11:41.396Z,28.00
2018-09-03T12:14:13.547Z,27.90
2018-09-03T12:16:41.114Z,27.70
2018-09-03T12:19:08.635Z,27.50
2018-09-03T12:21:36.191Z,27.20
2018-09-03T12:24:03.724Z,27.00
2018-09-03T12:26:31.260Z,26.70
2018-09-03T12:28:58.832Z,26.60
2018-09-03T12:31:26.447Z,26.40
2018-09-03T12:33:53.948Z,26.30
2018-09-03T12:36:21.496Z,26.10
2018-09-03T12:38:49.034Z,26.00
2018-09-03T12:41:16.612Z,25.80
2018-09-03T12:43:44.186Z,25.70
2018-09-03T12:46:11.747Z,25.60
2018-09-03T12:48:39.693Z,25.50
2018-09-03T12:51:07.272Z,25.30
2018-09-03T12:53:34.833Z,25.20
2018-09-03T12:56:02.830Z,25.10
2018-09-03T12:58:30.420Z,25.00
2018-09-03T13:00:58.004Z,24.80
2018-09-03T13:03:25.497Z,24.50
2018-09-03T13:05:53.085Z,24.40
2018-09-03T13:08:20.620Z,24.20
2018-09-03T13:10:48.159Z,24.10
2018-09-03T13:13:15.730Z,24.00
2018-09-03T13:15:43.267Z,24.00
2018-09-03T13:18:10.821Z,24.00
2018-09-03T13:20:38.361Z,24.20
2018-09-03T13:23:05.894Z,24.40
2018-09-03T13:25:33.418Z,24.60
2018-09-03T13:28:00.951Z,24.80
2018-09-03T13:30:28.488Z,25.20
2018-09-03T13:32:56.091Z,25.50
2018-09-03T13:35:23.886Z,25.80
2018-09-03T13:37:51.415Z,26.10
2018-09-03T13:40:18.945Z,26.40
2018-09-03T13:42:46.493Z,26.60
2018-09-03T13:45:14.006Z,26.90
2018-09-03T13:47:41.546Z,27.20
2018-09-03T13:50:09.073Z,27.60
2018-09-03T13:52:36.609Z,28.00
2018-09-03T13:55:04.398Z,28.50
2018-09-03T13:57:31.885Z,28.80
2018-09-03T13:59:59.411Z,29.30
2018-09-03T14:02:26.941Z,29.80
2018-09-03T14:04:54.536Z,30.20
2018-09-03T14:07:22.037Z,30.40
2018-09-03T14:09:49.688Z,30.50
2018-09-03T14:12:17.199Z,30.40
2018-09-03T14:14:44.731Z,30.20
2018-09-03T14:17:12.267Z,30.00
2018-09-03T14:19:39.824Z,29.80
2018-09-03T14:22:07.400Z,29.60
2018-09-03T14:24:34.928Z,29.70
2018-09-03T14:27:02.461Z,29.80
2018-09-03T14:29:30.808Z,29.80
2018-09-03T14:31:58.331Z,29.70
2018-09-03T14:34:25.868Z,29.60
2018-09-03T14:36:53.403Z,29.40
2018-09-03T14:39:27.711Z,29.10
2018-09-03T14:41:55.227Z,28.80
2018-09-03T14:44:22.792Z,28.40
2018-09-03T14:46:57.090Z,27.90
2018-09-03T14:49:24.676Z,27.60
2018-09-03T14:51:52.159Z,27.20
2018-09-03T14:54:19.667Z,26.80
2018-09-03T14:56:47.229Z,26.50
2018-09-03T14:59:14.742Z,26.30
2018-09-03T15:01:42.267Z,26.10
2018-09-03T15:04:09.843Z,25.80
2018-09-03T15:06:37.410Z,25.70
2018-09-03T15:09:06.915Z,25.50
2018-09-03T15:11:34.456Z,25.40
2018-09-03T15:14:02.028Z,25.40
2018-09-03T15:16:31.250Z,25.50
2018-09-03T15:18:59.860Z,25.50
2018-09-03T15:21:27.386Z,25.50
2018-09-03T15:23:54.946Z,25.40
2018-09-03T15:26:22.578Z,25.40
2018-09-03T15:28:50.060Z,25.30
2018-09-03T15:31:17.840Z,25.20
2018-09-03T15:33:45.426Z,25.20
2018-09-03T15:36:13.089Z,25.20
2018-09-03T15:38:40.601Z,25.20
2018-09-03T15:41:08.605Z,25.20
2018-09-03T15:43:36.244Z,25.30
2018-09-03T15:46:05.170Z,25.40
2018-09-03T15:48:32.760Z,25.40
2018-09-03T15:51:00.315Z,25.40
2018-09-03T15:53:28.002Z,25.50
2018-09-03T15:55:55.822Z,25.50
2018-09-03T15:58:23.444Z,25.60
2018-09-03T16:00:51.001Z,25.60
2018-09-03T16:03:18.554Z,25.60
2018-09-03T16:05:46.078Z,25.60
2018-09-03T16:08:13.598Z,25.60
2018-09-03T16:10:41.129Z,25.60
2018-09-03T16:13:08.654Z,25.60
2018-09-03T16:15:36.191Z,25.60
2018-09-03T16:18:04.031Z,25.60
2018-09-03T16:20:31.612Z,25.60
2018-09-03T16:22:59.215Z,25.50
2018-09-03T16:25:26.769Z,25.40
2018-09-03T16:27:54.376Z,25.40
2018-09-03T16:30:21.855Z,25.30
2018-09-03T16:32:49.375Z,25.20
2018-09-03T16:35:16.915Z,25.10
2018-09-03T16:37:44.463Z,25.00
2018-09-03T16:40:12.025Z,24.90
2018-09-03T16:42:39.578Z,24.80
2018-09-03T16:45:07.185Z,24.70
2018-09-03T16:47:34.741Z,24.50
2018-09-03T16:50:02.309Z,24.30
2018-09-03T16:52:29.826Z,24.10
2018-09-03T16:54:57.361Z,24.00
2018-09-03T16:57:24.885Z,23.80
2018-09-03T16:59:52.425Z,23.70
2018-09-03T17:02:19.942Z,23.50
2018-09-03T17:04:47.488Z,23.30
2018-09-03T17:07:15.038Z,23.20
2018-09-03T17:09:42.584Z,23.10
2018-09-03T17:12:10.120Z,23.00
2018-09-03T17:14:37.643Z,22.90
2018-09-03T17:17:05.525Z,22.80
2018-09-03T17:19:33.047Z,22.70
2018-09-03T17:22:00.555Z,22.50
2018-09-03T17:24:28.090Z,22.40
2018-09-03T17:26:55.611Z,22.30
2018-09-03T17:29:23.141Z,22.20
2018-09-03T17:31:50.664Z,22.20
2018-09-03T17:34:18.209Z,22.10
2018-09-03T17:36:45.740Z,22.00
2018-09-03T17:39:13.271Z,21.90
2018-09-03T17:41:40.865Z,21.80
2018-09-03T17:44:08.398Z,21.80
2018-09-03T17:46:35.937Z,21.70
2018-09-03T17:49:03.504Z,21.60
2018-09-03T17:51:31.028Z,21.50
2018-09-03T17:53:58.534Z,21.50
2018-09-03T17:56:26.066Z,21.40
2018-09-03T17:58:53.624Z,21.30
2018-09-03T18:01:21.147Z,21.30
2018-09-03T18:03:48.850Z,21.20
2018-09-03T18:06:16.415Z,21.20
2018-09-03T18:08:43.966Z,21.10
2018-09-03T18:11:11.491Z,21.10
2018-09-03T18:13:39.016Z,21.10
2018-09-03T18:16:06.553Z,21.10
2018-09-03T18:18:34.066Z,21.10
2018-09-03T18:21:01.598Z,21.10
2018-09-03T18:23:29.106Z,21.00
2018-09-03T18:25:56.644Z,21.00
2018-09-03T18:28:24.202Z,20.90
2018-09-03T18:30:51.751Z,20.90
2018-09-03T18:33:19.265Z,20.80
2018-09-03T18:35:46.906Z,20.80
2018-09-03T18:38:14.437Z,20.80
2018-09-03T18:40:41.966Z,20.70
2018-09-03T18:43:09.485Z,20.70
2018-09-03T18:45:37.036Z,20.70
2018-09-03T18:48:04.767Z,20.70
2018-09-03T18:50:32.290Z,20.60
2018-09-03T18:52:59.846Z,20.50
2018-09-03T18:55:27.375Z,20.50
2018-09-03T18:57:54.911Z,20.40
2018-09-03T19:00:22.485Z,20.40
2018-09-03T19:02:50.008Z,20.30
2018-09-03T19:05:17.548Z,20.30
2018-09-03T19:07:45.076Z,20.30
2018-09-03T19:10:12.610Z,20.20
2018-09-03T19:12:40.127Z,20.20
2018-09-03T19:15:14.685Z,20.30
2018-09-03T19:17:49.045Z,20.20
2018-09-03T19:20:16.573Z,20.30
2018-09-03T19:22:44.095Z,20.30
2018-09-03T19:25:11.633Z,20.30
2018-09-03T19:27:39.172Z,20.40
2018-09-03T19:30:06.868Z,20.40
2018-09-03T19:32:34.400Z,20.50
2018-09-03T19:35:01.942Z,20.50
2018-09-03T19:37:29.475Z,20.50
2018-09-03T19:39:57.018Z,20.60
2018-09-03T19:42:24.561Z,20.60
2018-09-03T19:44:52.091Z,20.60
2018-09-03T19:47:19.624Z,20.60
2018-09-03T19:49:47.156Z,20.50
2018-09-03T19:52:14.684Z,20.50
2018-09-03T19:54:42.207Z,20.50
2018-09-03T19:57:09.732Z,20.50
2018-09-03T19:59:37.481Z,20.40
2018-09-03T20:02:05.178Z,20.40
2018-09-03T20:04:32.691Z,20.40
2018-09-03T20:07:00.285Z,20.30
2018-09-03T20:09:45.623Z,20.30
2018-09-03T20:12:13.203Z,20.30
2018-09-03T20:14:40.754Z,20.20
2018-09-03T20:17:08.329Z,20.20
2018-09-03T20:19:35.850Z,20.20
2018-09-03T20:22:03.403Z,20.10
2018-09-03T20:24:30.947Z,20.00
2018-09-03T20:26:58.512Z,20.00
2018-09-03T20:29:26.043Z,19.90
2018-09-03T20:31:53.605Z,19.90
2018-09-03T20:34:21.147Z,19.80
2018-09-03T20:36:48.687Z,19.70
2018-09-03T20:39:16.220Z,19.60
2018-09-03T20:41:43.758Z,19.60
2018-09-03T20:44:11.319Z,19.50
2018-09-03T20:46:38.939Z,19.40
2018-09-03T20:49:06.431Z,19.40
2018-09-03T20:51:33.996Z,19.30
2018-09-03T20:54:01.535Z,19.30
2018-09-03T20:56:29.082Z,19.30
2018-09-03T20:58:56.627Z,19.30
2018-09-03T21:01:24.228Z,19.30
2018-09-03T21:03:51.779Z,19.40
2018-09-03T21:06:19.331Z,19.30
2018-09-03T21:08:46.882Z,19.40
2018-09-03T21:11:32.740Z,19.30
2018-09-03T21:20:05.779Z,19.30
2018-09-03T21:22:33.340Z,19.30
2018-09-03T21:25:00.888Z,19.20
2018-09-03T21:27:28.456Z,19.20
2018-09-03T21:29:56.153Z,19.20
2018-09-03T21:32:23.719Z,19.20
2018-09-03T21:34:51.292Z,19.10
2018-09-03T21:43:18.226Z,19.00
2018-09-03T21:45:45.770Z,18.90
2018-09-03T21:48:13.317Z,18.80
2018-09-03T21:50:40.888Z,18.80
2018-09-03T21:53:08.453Z,18.80
2018-09-03T21:55:35.995Z,18.80
2018-09-03T21:58:03.549Z,18.80
2018-09-03T22:00:31.128Z,18.70
2018-09-03T22:02:58.671Z,18.60
2018-09-03T22:05:26.228Z,18.60
2018-09-03T22:07:53.785Z,18.60
2018-09-03T22:10:21.334Z,18.50
2018-09-03T22:12:48.892Z,18.50
2018-09-03T22:15:16.434Z,18.40
2018-09-03T22:17:43.993Z,18.40
2018-09-03T22:20:11.556Z,18.40
2018-09-03T22:22:39.116Z,18.30
2018-09-03T22:25:06.861Z,18.30
2018-09-03T22:27:34.424Z,18.20
2018-09-03T22:30:01.991Z,18.20
2018-09-03T22:32:29.563Z,18.20
2018-09-03T22:34:57.086Z,18.10
2018-09-03T22:37:24.636Z,18.10
2018-09-03T22:39:52.181Z,18.10
2018-09-03T22:42:22.865Z,18.00
2018-09-03T22:44:50.416Z,18.00
2018-09-03T22:47:17.957Z,18.00
2018-09-03T22:49:45.497Z,17.90
2018-09-03T22:52:13.047Z,17.80
2018-09-03T22:54:40.587Z,17.80
2018-09-03T22:57:08.124Z,17.70
2018-09-03T22:59:35.649Z,17.70
2018-09-03T23:02:03.212Z,17.70
2018-09-03T23:04:38.267Z,17.60
2018-09-03T23:07:05.816Z,17.60
2018-09-03T23:09:33.354Z,17.60
2018-09-03T23:12:00.891Z,17.60
2018-09-03T23:14:28.430Z,17.50
2018-09-03T23:16:55.964Z,17.50
2018-09-03T23:19:23.485Z,17.50
2018-09-03T23:21:51.018Z,17.40
2018-09-03T23:24:18.576Z,17.40
2018-09-03T23:26:46.118Z,17.40
2018-09-03T23:29:13.635Z,17.40
2018-09-03T23:31:41.187Z,17.40
2018-09-03T23:34:08.695Z,17.40
2018-09-03T23:36:36.233Z,17.30
2018-09-03T23:39:04.607Z,17.30
2018-09-03T23:41:32.118Z,17.20
2018-09-03T23:43:59.646Z,17.20
2018-09-03T23:46:27.177Z,17.20
2018-09-03T23:48:54.708Z,17.10
2018-09-03T23:51:22.246Z,17.10
2018-09-03T23:53:49.787Z,17.10
2018-09-03T23:56:17.312Z,17.10
2018-09-03T23:58:44.852Z,17.00
